createdAt,value
2023-04-12T00:12:43.719Z,14.50
2023-04-12T00:27:46.363Z,13.20
2023-04-12T00:42:49.178Z,12.40
2023-04-12T00:57:51.814Z,11.00
2023-04-12T01:13:11.388Z,12.50
2023-04-12T01:28:29.198Z,9.80
2023-04-12T01:43:31.883Z,12.20
2023-04-12T01:58:35.342Z,11.80
2023-04-12T02:13:38.331Z,11.40
2023-04-12T02:28:41.245Z,9.90
2023-04-12T02:43:43.828Z,13.30
2023-04-12T02:58:46.448Z,11.10
2023-04-12T03:13:49.068Z,12.60
2023-04-12T03:28:52.046Z,10.60
2023-04-12T03:43:54.801Z,10.20
2023-04-12T03:58:57.492Z,11.00
2023-04-12T04:14:00.502Z,12.10
2023-04-12T04:29:03.569Z,10.50
2023-04-12T04:44:10.634Z,11.80
2023-04-12T04:59:13.525Z,12.80
2023-04-12T05:14:17.246Z,13.40
2023-04-12T05:29:20.373Z,12.80
2023-04-12T05:44:23.085Z,10.40
2023-04-12T05:59:25.960Z,10.40
2023-04-12T06:14:28.622Z,13.80
2023-04-12T06:29:31.244Z,10.40
2023-04-12T06:44:33.820Z,11.30
2023-04-12T06:59:36.499Z,9.70
2023-04-12T07:14:39.913Z,9.70
2023-04-12T07:29:42.827Z,7.60
2023-04-12T07:44:45.548Z,7.10
2023-04-12T07:59:48.205Z,7.70
2023-04-12T08:14:51.011Z,7.30
2023-04-12T08:29:53.812Z,8.30
2023-04-12T08:44:56.558Z,5.20
2023-04-12T09:00:03.978Z,8.90
2023-04-12T09:15:15.672Z,8.40
2023-04-12T09:30:20.655Z,9.90
2023-04-12T09:45:26.323Z,6.10
2023-04-12T10:00:31.396Z,7.00
2023-04-12T10:15:34.954Z,9.80
2023-04-12T10:30:38.138Z,5.40
2023-04-12T10:45:41.286Z,7.60
2023-04-12T11:00:56.768Z,7.80
2023-04-12T11:16:03.481Z,7.70
2023-04-12T11:31:06.477Z,6.50
2023-04-12T11:46:10.013Z,9.20
2023-04-12T12:01:14.508Z,8.70
2023-04-12T12:16:18.624Z,5.10
2023-04-12T12:31:24.523Z,11.20
2023-04-12T12:46:37.338Z,8.30
2023-04-12T13:01:50.125Z,13.50
2023-04-12T13:16:52.983Z,7.60
2023-04-12T13:31:56.494Z,6.10
2023-04-12T13:46:59.193Z,5.10
2023-04-12T14:17:05.521Z,8.20
2023-04-12T14:32:08.358Z,4.90
2023-04-12T14:47:11.007Z,5.60
2023-04-12T15:17:17.154Z,5.20
2023-04-12T15:32:19.855Z,7.30
2023-04-12T16:02:27.342Z,7.50
2023-04-12T16:17:31.510Z,7.20
2023-04-12T16:32:36.011Z,7.20
2023-04-12T16:47:40.286Z,6.60
2023-04-12T17:02:43.192Z,6.70
2023-04-12T17:18:04.074Z,10.00
2023-04-12T17:33:07.971Z,12.00
2023-04-12T17:48:14.415Z,14.80
2023-04-12T18:03:17.528Z,24.50
2023-04-12T18:18:20.307Z,15.90
2023-04-12T19:03:30.405Z,12.90
2023-04-12T19:18:33.454Z,15.60
2023-04-12T19:33:36.720Z,20.70
2023-04-12T19:48:39.733Z,19.30
2023-04-12T20:03:45.601Z,16.70
2023-04-12T20:18:48.517Z,15.50
2023-04-12T21:04:06.031Z,17.80
2023-04-12T21:19:09.479Z,16.80
2023-04-12T21:34:12.422Z,18.90
2023-04-12T21:49:15.786Z,20.10
2023-04-12T22:04:18.552Z,26.50
2023-04-12T22:49:28.398Z,23.50
2023-04-12T23:04:31.156Z,23.90
2023-04-12T23:19:34.405Z,23.50
2023-04-12T23:34:37.358Z,23.80
2023-04-12T23:49:39.964Z,24.20
